createdAt,value
2023-05-13T00:01:04.373Z,6.77
2023-05-13T00:03:32.300Z,6.93
2023-05-13T00:06:01.451Z,6.97
2023-05-13T00:08:28.908Z,7.13
2023-05-13T00:10:56.389Z,6.93
2023-05-13T00:13:23.862Z,7.30
2023-05-13T00:15:51.430Z,6.55
2023-05-13T00:18:19.033Z,6.35
2023-05-13T00:20:46.494Z,6.40
2023-05-13T00:23:15.459Z,7.07
2023-05-13T00:25:44.449Z,6.57
2023-05-13T00:28:13.949Z,6.93
2023-05-13T00:30:42.134Z,6.50
2023-05-13T00:33:09.608Z,5.73
2023-05-13T00:35:37.077Z,6.63
2023-05-13T00:38:04.612Z,6.23
2023-05-13T00:40:38.029Z,6.17
2023-05-13T00:43:05.600Z,5.27
2023-05-13T00:45:33.376Z,6.20
2023-05-13T00:48:01.666Z,5.87
2023-05-13T00:50:29.190Z,5.87
2023-05-13T00:52:58.436Z,6.50
2023-05-13T00:55:26.616Z,5.57
2023-05-13T00:57:55.428Z,6.10
2023-05-13T01:00:23.078Z,5.75
2023-05-13T01:02:58.631Z,5.60
2023-05-13T01:05:35.826Z,6.03
2023-05-13T01:08:14.629Z,6.00
2023-05-13T01:10:49.599Z,6.20
2023-05-13T01:13:24.204Z,6.22
2023-05-13T01:15:57.431Z,6.07
2023-05-13T01:18:29.245Z,5.60
2023-05-13T01:20:57.537Z,5.50
2023-05-13T01:23:26.404Z,5.47
2023-05-13T01:25:54.062Z,5.67
2023-05-13T01:28:21.591Z,5.20
2023-05-13T01:30:49.663Z,6.03
2023-05-13T01:33:18.887Z,6.27
2023-05-13T01:35:48.305Z,6.10
2023-05-13T01:38:16.292Z,6.77
2023-05-13T01:40:46.249Z,6.27
2023-05-13T01:43:13.759Z,6.10
2023-05-13T01:45:42.218Z,5.78
2023-05-13T01:48:09.685Z,6.50
2023-05-13T01:50:37.166Z,5.63
2023-05-13T01:53:04.870Z,5.53
2023-05-13T01:55:32.361Z,5.82
2023-05-13T01:58:01.358Z,6.30
2023-05-13T02:00:28.828Z,6.97
2023-05-13T02:02:56.462Z,6.10
2023-05-13T02:05:24.173Z,6.60
2023-05-13T02:07:51.831Z,5.93
2023-05-13T02:10:19.355Z,6.47
2023-05-13T02:12:46.903Z,6.10
2023-05-13T02:15:15.883Z,6.43
2023-05-13T02:17:43.410Z,6.75
2023-05-13T02:20:12.037Z,6.18
2023-05-13T02:22:39.498Z,6.77
2023-05-13T02:25:07.824Z,6.27
2023-05-13T02:27:35.286Z,6.50
2023-05-13T02:30:02.846Z,6.53
2023-05-13T02:32:31.769Z,6.40
2023-05-13T02:34:59.273Z,6.47
2023-05-13T02:37:26.729Z,6.43
2023-05-13T02:39:54.252Z,6.15
2023-05-13T02:42:22.015Z,6.33
2023-05-13T02:44:49.512Z,6.63
2023-05-13T02:47:16.991Z,6.43
2023-05-13T02:49:45.844Z,6.38
2023-05-13T02:52:13.377Z,6.90
2023-05-13T02:54:40.878Z,6.45
2023-05-13T02:57:08.393Z,6.90
2023-05-13T02:59:35.826Z,6.55
2023-05-13T03:02:03.295Z,6.20
2023-05-13T03:04:30.838Z,6.45
2023-05-13T03:06:59.830Z,6.77
2023-05-13T03:09:27.247Z,7.40
2023-05-13T03:11:54.762Z,6.63
2023-05-13T03:14:23.063Z,6.43
2023-05-13T03:16:50.512Z,6.07
2023-05-13T03:19:17.976Z,6.60
2023-05-13T03:21:45.484Z,6.45
2023-05-13T03:24:14.376Z,6.60
2023-05-13T03:26:41.884Z,6.60
2023-05-13T03:29:09.320Z,6.55
2023-05-13T03:31:36.950Z,6.43
2023-05-13T03:34:04.528Z,7.18
2023-05-13T03:36:32.325Z,6.43
2023-05-13T03:38:59.958Z,6.25
2023-05-13T03:41:29.019Z,6.70
2023-05-13T03:43:56.475Z,6.30
2023-05-13T03:46:24.059Z,6.88
2023-05-13T03:48:51.540Z,7.03
2023-05-13T03:51:19.001Z,6.87
2023-05-13T03:53:46.519Z,6.40
2023-05-13T03:56:14.265Z,7.25
2023-05-13T03:58:43.062Z,6.75
2023-05-13T04:01:10.569Z,6.67
2023-05-13T04:03:38.002Z,7.18
2023-05-13T04:06:06.061Z,6.68
2023-05-13T04:08:34.362Z,7.22
2023-05-13T04:11:01.802Z,7.60
2023-05-13T04:13:29.253Z,7.93
2023-05-13T04:15:58.086Z,7.32
2023-05-13T04:18:25.574Z,7.63
2023-05-13T04:20:53.028Z,7.53
2023-05-13T04:23:20.531Z,7.40
2023-05-13T04:25:51.638Z,6.82
2023-05-13T04:28:19.358Z,7.25
2023-05-13T04:30:46.836Z,7.05
2023-05-13T04:33:15.656Z,6.63
2023-05-13T04:35:43.157Z,7.13
2023-05-13T04:38:10.730Z,6.95
2023-05-13T04:40:38.215Z,6.97
2023-05-13T04:43:05.665Z,6.85
2023-05-13T04:45:33.121Z,7.25
2023-05-13T04:48:00.754Z,6.30
2023-05-13T04:50:29.673Z,7.35
2023-05-13T04:52:57.703Z,7.97
2023-05-13T04:55:27.586Z,6.88
2023-05-13T04:57:55.454Z,7.18
2023-05-13T05:00:23.116Z,7.20
2023-05-13T05:02:50.794Z,7.32
2023-05-13T05:05:18.668Z,7.20
2023-05-13T05:07:47.582Z,7.10
2023-05-13T05:10:15.481Z,6.57
2023-05-13T05:12:43.237Z,7.45
2023-05-13T05:15:15.606Z,8.38
2023-05-13T05:17:43.383Z,6.88
2023-05-13T05:20:12.248Z,7.13
2023-05-13T05:22:41.733Z,7.82
2023-05-13T05:25:11.656Z,8.15
2023-05-13T05:27:39.234Z,7.47
2023-05-13T05:30:08.009Z,7.30
2023-05-13T05:32:35.749Z,6.38
2023-05-13T05:35:03.904Z,6.50
2023-05-13T05:37:31.924Z,6.95
2023-05-13T05:39:59.407Z,7.05
2023-05-13T05:42:28.227Z,6.35
2023-05-13T05:44:55.666Z,6.40
2023-05-13T05:47:23.140Z,6.20
2023-05-13T05:49:50.660Z,5.90
2023-05-13T05:52:18.133Z,5.95
2023-05-13T05:54:45.595Z,6.60
2023-05-13T05:57:13.066Z,6.28
2023-05-13T05:59:41.866Z,5.80
2023-05-13T06:02:09.376Z,6.13
2023-05-13T06:04:36.897Z,5.80
2023-05-13T06:07:04.503Z,5.90
2023-05-13T06:09:32.154Z,5.47
2023-05-13T06:11:59.638Z,5.68
2023-05-13T06:14:27.335Z,5.43
2023-05-13T06:16:56.206Z,5.20
2023-05-13T06:19:23.662Z,5.28
2023-05-13T06:21:51.155Z,4.60
2023-05-13T06:24:18.609Z,4.57
2023-05-13T06:26:46.339Z,4.82
2023-05-13T06:29:13.790Z,4.45
2023-05-13T06:31:41.416Z,4.90
2023-05-13T06:34:16.301Z,4.80
2023-05-13T06:36:44.086Z,4.30
2023-05-13T06:39:12.732Z,4.40
2023-05-13T06:41:40.695Z,4.95
2023-05-13T06:44:08.608Z,4.90
2023-05-13T06:46:36.154Z,4.65
2023-05-13T06:49:03.776Z,5.53
2023-05-13T06:51:33.156Z,5.13
2023-05-13T06:54:00.614Z,4.50
2023-05-13T06:56:28.048Z,4.80
2023-05-13T06:58:55.636Z,4.40
2023-05-13T07:01:23.118Z,4.55
2023-05-13T07:03:50.729Z,5.47
2023-05-13T07:06:18.310Z,4.63
2023-05-13T07:08:47.065Z,4.60
2023-05-13T07:11:14.537Z,4.50
2023-05-13T07:13:41.968Z,3.88
2023-05-13T07:16:09.442Z,3.95
2023-05-13T07:18:36.986Z,4.20
2023-05-13T07:21:04.752Z,5.38
2023-05-13T07:23:32.460Z,8.07
2023-05-13T07:26:01.286Z,4.13
2023-05-13T07:28:28.739Z,3.60
2023-05-13T07:30:56.501Z,4.03
2023-05-13T07:33:23.988Z,4.05
2023-05-13T07:35:51.508Z,3.95
2023-05-13T07:38:19.045Z,3.38
2023-05-13T07:40:46.466Z,2.88
2023-05-13T07:43:17.850Z,3.13
2023-05-13T07:45:45.280Z,3.42
2023-05-13T07:48:12.741Z,3.40
2023-05-13T07:50:40.218Z,3.35
2023-05-13T07:53:07.697Z,3.22
2023-05-13T07:55:35.150Z,3.03
2023-05-13T07:58:02.730Z,3.17
2023-05-13T08:00:31.667Z,3.20
2023-05-13T08:02:59.236Z,3.13
2023-05-13T08:05:26.743Z,2.97
2023-05-13T08:07:54.219Z,2.60
2023-05-13T08:10:21.823Z,2.83
2023-05-13T08:12:53.491Z,2.80
2023-05-13T08:15:21.253Z,3.50
2023-05-13T08:17:50.636Z,2.92
2023-05-13T08:20:18.171Z,3.00
2023-05-13T08:22:45.670Z,2.63
2023-05-13T08:25:13.161Z,2.40
2023-05-13T08:27:40.625Z,2.38
2023-05-13T08:30:09.291Z,2.30
2023-05-13T08:32:36.835Z,2.25
2023-05-13T08:35:06.379Z,2.30
2023-05-13T08:37:33.918Z,2.20
2023-05-13T08:40:02.522Z,2.67
2023-05-13T08:42:33.298Z,2.60
2023-05-13T08:45:05.539Z,2.17
2023-05-13T08:47:42.594Z,2.10
2023-05-13T08:50:13.507Z,1.95
2023-05-13T08:52:41.158Z,2.15
2023-05-13T08:55:09.675Z,2.00
2023-05-13T08:57:37.183Z,2.00
2023-05-13T09:00:05.793Z,2.03
2023-05-13T09:02:33.257Z,1.90
2023-05-13T09:05:06.313Z,2.20
2023-05-13T09:07:35.521Z,2.25
2023-05-13T09:10:03.690Z,2.00
2023-05-13T09:12:47.356Z,2.30
2023-05-13T09:15:17.227Z,1.90
2023-05-13T09:17:46.054Z,2.20
2023-05-13T09:20:15.283Z,2.08
2023-05-13T09:22:46.280Z,2.15
2023-05-13T09:25:14.697Z,2.13
2023-05-13T09:27:44.368Z,2.08
2023-05-13T09:30:12.466Z,2.05
2023-05-13T09:32:40.976Z,1.80
2023-05-13T09:35:16.552Z,1.80
2023-05-13T09:37:49.240Z,2.00
2023-05-13T09:40:18.392Z,1.90
2023-05-13T09:42:46.878Z,2.10
2023-05-13T09:45:16.362Z,1.80
2023-05-13T09:47:44.491Z,1.90
2023-05-13T09:50:13.003Z,2.25
2023-05-13T09:52:40.587Z,1.67
2023-05-13T09:55:11.065Z,1.60
2023-05-13T09:57:40.787Z,2.08
2023-05-13T10:00:17.870Z,1.80
2023-05-13T10:02:53.251Z,1.80
2023-05-13T10:05:21.516Z,1.90
2023-05-13T10:07:49.055Z,2.03
2023-05-13T10:10:17.981Z,1.60
2023-05-13T10:12:45.534Z,1.50
2023-05-13T10:15:13.388Z,1.80
2023-05-13T10:17:42.230Z,1.83
2023-05-13T10:20:10.002Z,1.70
2023-05-13T10:22:38.042Z,2.00
2023-05-13T10:25:06.404Z,1.90
2023-05-13T10:27:35.551Z,2.00
2023-05-13T10:30:05.723Z,1.70
2023-05-13T10:32:33.357Z,1.75
2023-05-13T10:35:05.366Z,1.95
2023-05-13T10:37:55.514Z,1.80
2023-05-13T10:40:36.963Z,1.90
2023-05-13T10:43:18.792Z,2.00
2023-05-13T10:45:48.162Z,1.80
2023-05-13T10:48:17.306Z,1.90
2023-05-13T10:50:56.166Z,1.90
2023-05-13T10:53:25.559Z,2.00
2023-05-13T10:55:57.653Z,1.85
2023-05-13T10:58:31.417Z,1.90
2023-05-13T11:01:15.131Z,2.33
2023-05-13T11:03:42.976Z,2.15
2023-05-13T11:06:19.701Z,1.90
2023-05-13T11:08:48.430Z,1.70
2023-05-13T11:11:23.571Z,1.80
2023-05-13T11:13:52.991Z,1.98
2023-05-13T11:16:21.822Z,1.98
2023-05-13T11:18:50.265Z,1.77
2023-05-13T11:21:17.843Z,2.00
2023-05-13T11:23:53.136Z,1.70
2023-05-13T11:26:21.410Z,1.92
2023-05-13T11:28:58.579Z,1.80
2023-05-13T11:31:28.240Z,1.90
2023-05-13T11:34:12.140Z,1.70
2023-05-13T11:36:40.991Z,1.90
2023-05-13T11:39:14.749Z,1.90
2023-05-13T11:41:45.024Z,1.73
2023-05-13T11:44:16.567Z,1.60
2023-05-13T11:46:52.178Z,1.80
2023-05-13T11:49:36.682Z,1.52
2023-05-13T11:52:05.949Z,1.60
2023-05-13T11:54:33.501Z,1.63
2023-05-13T11:57:00.965Z,1.50
2023-05-13T11:59:36.004Z,1.60
2023-05-13T12:02:12.944Z,1.60
2023-05-13T12:04:40.546Z,1.42
2023-05-13T12:07:12.527Z,1.73
2023-05-13T12:09:39.970Z,1.52
2023-05-13T12:12:07.961Z,1.40
2023-05-13T12:14:37.583Z,1.73
2023-05-13T12:17:05.419Z,1.88
2023-05-13T12:19:32.856Z,1.50
2023-05-13T12:22:00.376Z,1.90
2023-05-13T12:24:28.544Z,1.80
2023-05-13T12:27:05.871Z,1.60
2023-05-13T12:29:42.395Z,1.65
2023-05-13T12:32:11.805Z,1.75
2023-05-13T12:34:39.889Z,1.65
2023-05-13T12:37:12.041Z,1.80
2023-05-13T12:39:39.728Z,1.60
2023-05-13T12:42:07.495Z,2.45
2023-05-13T12:44:35.028Z,1.65
2023-05-13T12:47:04.542Z,1.55
2023-05-13T12:49:32.158Z,1.50
2023-05-13T12:51:59.826Z,1.60
2023-05-13T12:54:27.286Z,1.60
2023-05-13T12:56:54.755Z,1.75
2023-05-13T12:59:22.433Z,1.60
2023-05-13T13:01:51.133Z,1.85
2023-05-13T13:04:20.160Z,1.70
2023-05-13T13:06:47.721Z,1.67
2023-05-13T13:09:15.250Z,1.80
2023-05-13T13:11:42.691Z,1.60
2023-05-13T13:14:10.157Z,1.70
2023-05-13T13:16:37.839Z,1.55
2023-05-13T13:19:05.403Z,1.70
2023-05-13T13:21:34.190Z,1.60
2023-05-13T13:24:01.923Z,1.67
2023-05-13T13:26:29.410Z,1.48
2023-05-13T13:28:56.853Z,1.70
2023-05-13T13:31:24.333Z,1.60
2023-05-13T13:33:53.686Z,1.58
2023-05-13T13:36:21.176Z,1.50
2023-05-13T13:38:49.952Z,1.50
2023-05-13T13:41:17.400Z,1.52
2023-05-13T13:43:44.828Z,1.70
2023-05-13T13:46:12.294Z,1.52
2023-05-13T13:48:39.825Z,1.60
2023-05-13T13:51:07.308Z,1.60
2023-05-13T13:53:34.802Z,1.60
2023-05-13T13:56:03.912Z,1.63
2023-05-13T13:58:31.362Z,1.30
2023-05-13T14:00:58.835Z,1.60
2023-05-13T14:03:26.481Z,1.42
2023-05-13T14:05:55.175Z,1.48
2023-05-13T14:08:22.655Z,1.45
2023-05-13T14:10:50.701Z,1.50
2023-05-13T14:13:19.488Z,1.60
2023-05-13T14:15:46.971Z,1.48
2023-05-13T14:18:14.434Z,1.50
2023-05-13T14:20:41.907Z,1.40
2023-05-13T14:23:09.347Z,1.77
2023-05-13T14:25:36.843Z,1.65
2023-05-13T14:28:04.296Z,1.70
2023-05-13T14:30:33.159Z,1.52
2023-05-13T14:33:00.946Z,1.52
2023-05-13T14:35:28.623Z,1.63
2023-05-13T14:37:56.254Z,1.60
2023-05-13T14:40:24.098Z,1.90
2023-05-13T14:42:51.724Z,1.83
2023-05-13T14:45:19.457Z,1.52
2023-05-13T14:47:48.319Z,1.80
2023-05-13T14:50:16.022Z,1.65
2023-05-13T14:52:43.465Z,1.88
2023-05-13T14:55:11.842Z,1.80
2023-05-13T14:57:39.745Z,2.00
2023-05-13T15:00:08.622Z,1.60
2023-05-13T15:02:36.365Z,1.60
2023-05-13T15:05:05.877Z,1.90
2023-05-13T15:07:33.363Z,1.80
2023-05-13T15:10:00.794Z,1.90
2023-05-13T15:12:28.236Z,1.90
2023-05-13T15:14:56.404Z,1.92
2023-05-13T15:17:23.908Z,2.08
2023-05-13T15:19:51.374Z,2.00
2023-05-13T15:22:20.229Z,1.90
2023-05-13T15:24:47.677Z,2.33
2023-05-13T15:27:15.532Z,1.80
2023-05-13T15:29:42.955Z,2.13
2023-05-13T15:32:11.745Z,2.03
2023-05-13T15:34:39.199Z,2.10
2023-05-13T15:37:06.823Z,2.38
2023-05-13T15:39:35.652Z,2.20
2023-05-13T15:42:03.663Z,2.17
2023-05-13T15:44:31.121Z,2.20
2023-05-13T15:46:58.680Z,2.08
2023-05-13T15:49:27.230Z,2.20
2023-05-13T15:51:56.007Z,2.13
2023-05-13T15:54:23.449Z,2.28
2023-05-13T15:56:52.702Z,2.20
2023-05-13T15:59:20.165Z,2.10
2023-05-13T16:01:47.682Z,2.42
2023-05-13T16:04:15.222Z,2.20
2023-05-13T16:06:42.810Z,2.72
2023-05-13T16:09:10.606Z,2.30
2023-05-13T16:11:38.098Z,2.17
2023-05-13T16:14:07.542Z,2.22
2023-05-13T16:16:35.131Z,2.18
2023-05-13T16:19:03.901Z,2.58
2023-05-13T16:21:31.572Z,2.65
2023-05-13T16:23:59.051Z,2.80
2023-05-13T16:26:26.684Z,2.17
2023-05-13T16:28:54.130Z,2.60
2023-05-13T16:31:22.925Z,2.50
2023-05-13T16:33:50.651Z,2.83
2023-05-13T16:36:18.272Z,2.55
2023-05-13T16:38:46.529Z,2.90
2023-05-13T16:41:13.983Z,3.30
2023-05-13T16:43:41.429Z,3.20
2023-05-13T16:46:08.863Z,2.85
2023-05-13T16:48:37.770Z,2.92
2023-05-13T16:51:05.586Z,2.83
2023-05-13T16:53:34.023Z,2.78
2023-05-13T16:56:02.567Z,3.58
2023-05-13T16:58:30.007Z,3.50
2023-05-13T17:00:59.230Z,3.78
2023-05-13T17:03:27.192Z,3.67
2023-05-13T17:05:56.202Z,4.80
2023-05-13T17:08:24.398Z,4.38
2023-05-13T17:10:51.904Z,4.30
2023-05-13T17:13:19.985Z,4.47
2023-05-13T17:15:48.119Z,4.75
2023-05-13T17:18:15.847Z,5.03
2023-05-13T17:20:43.916Z,4.93
2023-05-13T17:23:12.698Z,4.95
2023-05-13T17:25:40.161Z,5.20
2023-05-13T17:28:08.859Z,5.03
2023-05-13T17:30:36.297Z,5.40
2023-05-13T17:33:03.798Z,5.30
2023-05-13T17:35:31.289Z,5.00
2023-05-13T17:37:58.759Z,5.32
2023-05-13T17:40:27.634Z,4.80
2023-05-13T17:42:55.070Z,4.72
2023-05-13T17:45:23.082Z,5.10
2023-05-13T17:47:50.704Z,4.57
2023-05-13T17:50:18.277Z,5.15
2023-05-13T17:52:45.976Z,5.50
2023-05-13T17:55:13.461Z,5.30
2023-05-13T17:57:42.309Z,5.35
2023-05-13T18:00:10.687Z,5.60
2023-05-13T18:02:39.957Z,5.43
2023-05-13T18:05:08.206Z,6.15
2023-05-13T18:07:35.956Z,5.78
2023-05-13T18:10:03.761Z,6.43
2023-05-13T18:12:31.275Z,5.72
2023-05-13T18:15:00.051Z,6.03
2023-05-13T18:17:28.830Z,5.80
2023-05-13T18:19:56.333Z,5.85
2023-05-13T18:22:23.769Z,5.70
2023-05-13T18:24:51.191Z,6.70
2023-05-13T18:27:18.675Z,5.93
2023-05-13T18:29:47.413Z,6.43
2023-05-13T18:32:16.234Z,5.97
2023-05-13T18:34:43.738Z,6.20
2023-05-13T18:37:11.257Z,6.50
2023-05-13T18:39:38.725Z,6.40
2023-05-13T18:42:07.111Z,4.68
2023-05-13T18:44:34.643Z,5.70
2023-05-13T18:47:02.143Z,6.38
2023-05-13T18:49:32.259Z,6.30
2023-05-13T18:52:00.115Z,6.55
2023-05-13T18:54:29.120Z,6.70
2023-05-13T18:56:56.837Z,6.05
2023-05-13T18:59:24.368Z,6.65
2023-05-13T19:01:51.909Z,7.07
2023-05-13T19:04:19.714Z,6.57
2023-05-13T19:06:48.709Z,6.70
2023-05-13T19:09:16.197Z,7.18
2023-05-13T19:11:44.734Z,6.90
2023-05-13T19:14:12.194Z,7.45
2023-05-13T19:16:39.707Z,6.85
2023-05-13T19:19:07.277Z,6.82
2023-05-13T19:21:34.796Z,7.10
2023-05-13T19:24:04.169Z,6.72
2023-05-13T19:26:31.716Z,6.30
2023-05-13T19:28:59.336Z,7.03
2023-05-13T19:31:27.461Z,6.88
2023-05-13T19:33:55.033Z,6.90
2023-05-13T19:36:25.951Z,7.13
2023-05-13T19:38:53.570Z,6.53
2023-05-13T19:41:22.476Z,7.40
2023-05-13T19:43:49.991Z,6.45
2023-05-13T19:46:17.526Z,7.35
2023-05-13T19:48:45.091Z,7.57
2023-05-13T19:51:12.693Z,7.47
2023-05-13T19:53:40.137Z,7.22
2023-05-13T19:56:07.630Z,7.43
2023-05-13T19:58:36.517Z,7.70
2023-05-13T20:01:04.073Z,7.18
2023-05-13T20:03:31.615Z,7.68
2023-05-13T20:05:59.217Z,7.00
2023-05-13T20:08:27.292Z,6.82
2023-05-13T20:10:54.737Z,7.65
2023-05-13T20:13:22.209Z,7.03
2023-05-13T20:15:51.694Z,7.72
2023-05-13T20:18:19.203Z,7.20
2023-05-13T20:20:47.875Z,6.90
2023-05-13T20:23:15.437Z,7.60
2023-05-13T20:25:42.928Z,7.28
2023-05-13T20:28:10.563Z,7.53
2023-05-13T20:30:38.109Z,7.93
2023-05-13T20:33:06.998Z,7.53
2023-05-13T20:35:36.731Z,7.18
2023-05-13T20:38:04.194Z,6.95
2023-05-13T20:40:31.750Z,6.95
2023-05-13T20:43:01.229Z,7.55
2023-05-13T20:45:28.859Z,7.35
2023-05-13T20:47:59.171Z,7.32
2023-05-13T20:50:29.108Z,7.30
2023-05-13T20:52:56.607Z,7.05
2023-05-13T20:55:24.337Z,6.78
2023-05-13T20:57:51.868Z,6.90
2023-05-13T21:00:19.712Z,6.90
2023-05-13T21:02:48.649Z,6.63
2023-05-13T21:05:16.427Z,6.97
2023-05-13T21:07:45.349Z,6.70
2023-05-13T21:10:12.818Z,6.78
2023-05-13T21:12:40.327Z,7.05
2023-05-13T21:15:09.123Z,6.57
2023-05-13T21:17:36.737Z,6.93
2023-05-13T21:20:04.743Z,6.85
2023-05-13T21:22:32.235Z,6.38
2023-05-13T21:25:01.119Z,7.15
2023-05-13T21:27:28.633Z,6.50
2023-05-13T21:29:56.116Z,6.60
2023-05-13T21:32:23.673Z,7.18
2023-05-13T21:34:51.235Z,6.97
2023-05-13T21:37:18.697Z,6.82
2023-05-13T21:39:46.183Z,6.90
2023-05-13T21:42:14.966Z,7.20
2023-05-13T21:44:42.425Z,7.10
2023-05-13T21:47:09.918Z,7.45
2023-05-13T21:49:37.358Z,6.38
2023-05-13T21:52:05.598Z,7.22
2023-05-13T21:54:33.078Z,7.07
2023-05-13T21:57:00.626Z,6.90
2023-05-13T21:59:29.396Z,7.45
2023-05-13T22:01:56.905Z,7.18
2023-05-13T22:04:26.591Z,6.95
2023-05-13T22:06:54.456Z,6.63
2023-05-13T22:09:21.982Z,7.25
2023-05-13T22:11:49.535Z,7.40
2023-05-13T22:14:17.062Z,6.97
2023-05-13T22:16:51.974Z,7.20
2023-05-13T22:19:25.458Z,7.07
2023-05-13T22:21:52.906Z,7.43
2023-05-13T22:24:20.351Z,7.50
2023-05-13T22:26:47.815Z,7.38
2023-05-13T22:29:15.294Z,7.05
2023-05-13T22:31:42.802Z,7.22
2023-05-13T22:34:11.626Z,8.02
2023-05-13T22:36:39.881Z,8.35
2023-05-13T22:39:08.130Z,8.10
2023-05-13T22:41:35.611Z,8.70
2023-05-13T22:44:03.080Z,7.72
2023-05-13T22:46:30.653Z,7.80
2023-05-13T22:48:58.124Z,7.90
2023-05-13T22:51:26.953Z,8.02
2023-05-13T22:53:54.480Z,8.18
2023-05-13T22:56:22.692Z,7.75
2023-05-13T22:58:50.136Z,7.72
2023-05-13T23:01:17.618Z,8.57
2023-05-13T23:03:45.325Z,8.50
2023-05-13T23:06:13.434Z,8.57
2023-05-13T23:08:42.267Z,9.13
2023-05-13T23:11:09.754Z,9.60
2023-05-13T23:13:37.532Z,9.82
2023-05-13T23:16:05.429Z,10.73
2023-05-13T23:18:34.091Z,10.70
2023-05-13T23:21:02.562Z,10.30
2023-05-13T23:23:30.024Z,10.73
2023-05-13T23:25:58.819Z,10.88
2023-05-13T23:28:26.272Z,11.65
2023-05-13T23:30:54.796Z,10.55
2023-05-13T23:33:22.234Z,9.85
2023-05-13T23:35:53.829Z,9.82
2023-05-13T23:38:21.443Z,9.70
2023-05-13T23:40:49.177Z,9.20
2023-05-13T23:43:18.015Z,9.75
2023-05-13T23:45:45.869Z,9.77
2023-05-13T23:48:13.377Z,9.80
2023-05-13T23:50:41.854Z,9.32
2023-05-13T23:53:09.452Z,9.52
2023-05-13T23:55:36.931Z,9.27
2023-05-13T23:58:04.417Z,9.82
